OTTER BROOK LAKE : From 09/04/2018 16:00 to 09/19/2018 03:00

Date STAGE [FT] FLOW [CFS] LAKE ELEVATION [FT] PRECIPITATION INCREMENT [IN] AIR TEMPERATURE [DEGF]
09/18/2018 17:00 -- -- -- 0.00 --
09/18/2018 16:00 7.19 -- 22.37 0.00 69.9
09/18/2018 15:00 7.19 -- 22.25 0.00 71.3
09/18/2018 14:00 7.19 -- 22.11 0.00 73.9
09/18/2018 13:00 7.19 -- 21.95 0.00 76.7
09/18/2018 12:00 7.18 -- 21.78 0.00 76.4
09/18/2018 11:00 7.18 -- 21.57 0.00 79.7
09/18/2018 10:00 7.18 -- 21.35 0.00 75.2
09/18/2018 09:00 7.16 -- 21.10 0.01 73.4
09/18/2018 08:00 7.15 178.7 20.85 0.02 71.8
09/18/2018 07:00 7.06 158.0 20.61 0.02 70.0
09/18/2018 06:00 6.85 114.7 20.36 0.05 68.7
09/18/2018 05:00 6.67 81.7 20.15 0.08 68.0
09/18/2018 04:00 6.51 60.6 19.96 0.13 67.6
09/18/2018 03:00 6.40 48.3 19.84 0.12 67.7
09/18/2018 02:00 6.32 40.4 19.75 0.13 67.6
09/18/2018 01:00 6.31 39.5 19.74 0.10 68.3
09/18/2018 00:00 6.30 38.5 19.72 0.04 69.0
09/17/2018 23:00 6.30 38.5 19.72 0.05 69.4
09/17/2018 22:00 6.29 37.6 19.72 0.01 68.7
09/17/2018 21:00 6.29 37.6 19.71 0.00 68.2
09/17/2018 20:00 6.29 37.6 19.71 0.00 67.9
09/17/2018 19:00 6.29 37.6 19.72 0.00 67.9
09/17/2018 18:00 6.30 38.5 19.72 0.00 67.7
09/17/2018 17:00 6.30 38.5 19.72 0.00 68.0
09/17/2018 16:00 6.30 38.5 19.73 0.00 68.4
09/17/2018 15:00 6.30 38.5 19.73 0.00 70.1
09/17/2018 14:00 6.30 38.5 19.73 0.00 73.0
09/17/2018 13:00 6.30 38.5 19.73 0.00 77.3
09/17/2018 12:00 6.31 39.5 19.73 0.00 78.1
09/17/2018 11:00 6.31 39.5 19.74 0.00 81.0
09/17/2018 10:00 6.31 39.5 19.74 0.00 80.1
09/17/2018 09:00 6.31 39.5 19.74 0.00 81.0
09/17/2018 08:00 6.31 39.5 19.75 0.00 80.9
09/17/2018 07:00 6.32 40.4 19.75 0.00 78.6
09/17/2018 06:00 6.32 40.4 19.75 0.00 76.1
09/17/2018 05:00 6.32 40.4 19.75 0.00 71.7
09/17/2018 04:00 6.32 40.4 19.76 0.00 66.3
09/17/2018 03:00 6.33 41.3 19.76 0.00 63.7
09/17/2018 02:00 6.33 41.3 19.76 0.00 63.5
09/17/2018 01:00 6.33 41.3 19.76 0.00 63.7
09/17/2018 00:00 6.33 41.3 19.77 0.00 64.4
09/16/2018 23:00 6.33 41.3 19.77 0.00 65.4
09/16/2018 22:00 6.33 41.3 19.77 0.00 66.4
09/16/2018 21:00 6.34 42.3 19.77 0.00 67.4
09/16/2018 20:00 6.34 42.3 19.77 0.00 68.0
09/16/2018 19:00 6.34 42.3 19.77 0.00 69.4
09/16/2018 18:00 6.34 42.3 19.77 0.00 70.9
09/16/2018 17:00 6.34 42.3 19.77 0.00 73.0
09/16/2018 16:00 6.33 41.3 19.77 0.00 74.0
09/16/2018 15:00 6.33 41.3 19.77 0.00 75.5
09/16/2018 14:00 6.34 42.3 19.77 0.00 79.0
09/16/2018 13:00 6.34 42.3 19.77 0.00 82.1
09/16/2018 12:00 6.34 42.3 19.77 0.00 84.6
09/16/2018 11:00 6.34 42.3 19.77 0.00 86.9
09/16/2018 10:00 6.34 42.3 19.77 0.00 85.2
09/16/2018 09:00 6.34 42.3 19.77 0.00 85.0
09/16/2018 08:00 6.34 42.3 19.77 0.00 81.6
09/16/2018 07:00 6.34 42.3 19.77 0.00 79.1
09/16/2018 06:00 6.34 42.3 19.77 0.00 74.1
09/16/2018 05:00 6.34 42.3 19.77 0.00 66.4
09/16/2018 04:00 6.34 42.3 19.77 0.00 60.5
09/16/2018 03:00 6.33 41.3 19.77 0.00 59.2
09/16/2018 02:00 6.33 41.3 19.76 0.00 59.2
09/16/2018 01:00 6.33 41.3 19.76 0.00 59.5
09/16/2018 00:00 6.33 41.3 19.76 0.00 60.0
09/15/2018 23:00 6.32 40.4 19.75 0.00 60.9
09/15/2018 22:00 6.32 40.4 19.75 0.00 61.2
09/15/2018 21:00 6.32 40.4 19.75 0.00 62.2
09/15/2018 20:00 6.32 40.4 19.75 0.00 62.9
09/15/2018 19:00 6.33 41.3 19.76 0.00 64.0
09/15/2018 18:00 6.34 42.3 19.76 0.00 64.9
09/15/2018 17:00 6.33 41.3 19.77 0.00 65.6
09/15/2018 16:00 6.34 42.3 19.77 0.00 66.5
09/15/2018 15:00 6.35 43.3 19.78 0.00 69.4
09/15/2018 14:00 6.35 43.3 19.78 0.00 74.2
09/15/2018 13:00 6.36 44.2 19.79 0.00 78.1
09/15/2018 12:00 6.36 44.2 19.79 0.00 83.0
09/15/2018 11:00 6.36 44.2 19.80 0.00 83.2
09/15/2018 10:00 6.36 44.2 19.80 0.00 83.0
09/15/2018 09:00 6.37 45.2 19.81 0.00 81.2
09/15/2018 08:00 6.38 46.2 19.81 0.00 77.4
09/15/2018 07:00 6.38 46.2 19.82 0.00 73.8
09/15/2018 06:00 6.38 46.2 19.83 0.00 68.2
09/15/2018 05:00 6.39 47.3 19.83 0.00 66.3
09/15/2018 04:00 6.39 47.3 19.84 0.00 65.0
09/15/2018 03:00 6.40 48.3 19.84 0.00 63.6
09/15/2018 02:00 6.40 48.3 19.85 0.00 63.1
09/15/2018 01:00 6.41 49.4 19.86 0.00 62.9
09/15/2018 00:00 6.42 50.4 19.86 0.00 62.8
09/14/2018 23:00 6.42 50.4 19.87 0.00 62.3
09/14/2018 22:00 6.42 50.4 19.88 0.00 61.6
09/14/2018 21:00 6.43 51.5 19.88 0.00 61.9
09/14/2018 20:00 6.44 52.6 19.89 0.00 63.0
09/14/2018 19:00 6.44 52.6 19.90 0.00 64.0
09/14/2018 18:00 6.45 53.7 19.90 0.00 64.4
09/14/2018 17:00 6.45 53.7 19.91 0.00 64.9
09/14/2018 16:00 6.46 54.8 19.92 0.00 66.2
09/14/2018 15:00 6.47 55.9 19.92 0.00 68.7
09/14/2018 14:00 6.47 55.9 19.93 0.00 72.4
09/14/2018 13:00 6.48 57.1 19.94 0.00 78.1
09/14/2018 12:00 6.48 57.1 19.94 0.00 80.0
09/14/2018 11:00 6.49 58.3 19.95 0.00 78.2
09/14/2018 10:00 6.49 58.3 19.95 0.00 79.8
09/14/2018 09:00 6.50 59.4 19.96 0.00 80.5
09/14/2018 08:00 6.51 60.6 19.97 0.00 75.0
09/14/2018 07:00 6.51 60.6 19.98 0.00 73.0
09/14/2018 06:00 6.52 61.8 19.98 0.00 69.8
09/14/2018 05:00 6.52 61.8 19.99 0.00 64.6
09/14/2018 04:00 6.53 63.0 20.00 0.00 61.1
09/14/2018 03:00 6.53 63.0 20.00 0.00 61.2
09/14/2018 02:00 6.54 64.3 20.01 0.00 61.7
09/14/2018 01:00 6.55 65.5 20.02 0.00 62.5
09/14/2018 00:00 6.55 65.5 20.02 0.00 63.9
09/13/2018 23:00 6.56 66.8 20.03 0.00 64.7
09/13/2018 22:00 6.57 68.1 20.04 0.00 65.4
09/13/2018 21:00 6.57 68.1 20.04 0.00 65.6
09/13/2018 20:00 6.58 69.4 20.05 0.00 65.0
09/13/2018 19:00 6.58 69.4 20.06 0.00 65.0
09/13/2018 18:00 6.59 70.7 20.06 0.00 65.1
09/13/2018 17:00 6.60 72.0 20.07 0.00 65.6
09/13/2018 16:00 6.61 73.3 20.08 0.00 66.2
09/13/2018 15:00 6.61 73.3 20.08 0.00 68.7
09/13/2018 14:00 6.62 74.7 20.09 0.00 71.0
09/13/2018 13:00 6.63 76.1 20.10 0.00 72.5
09/13/2018 12:00 6.64 77.5 20.11 0.00 74.9
09/13/2018 11:00 6.64 77.5 20.12 0.00 74.7
09/13/2018 10:00 6.65 78.9 20.13 0.00 73.8
09/13/2018 09:00 6.66 80.3 20.13 0.00 71.6
09/13/2018 08:00 6.66 80.3 20.14 0.00 69.9
09/13/2018 07:00 6.67 81.7 20.15 0.00 69.7
09/13/2018 06:00 6.68 83.2 20.16 0.00 68.7
09/13/2018 05:00 6.69 84.6 20.17 0.00 67.1
09/13/2018 04:00 6.69 84.6 20.18 0.00 64.5
09/13/2018 03:00 6.70 86.1 20.18 0.00 63.5
09/13/2018 02:00 6.71 87.9 20.19 0.00 63.5
09/13/2018 01:00 6.72 89.7 20.20 0.00 63.9
09/13/2018 00:00 6.72 89.7 20.20 0.00 64.0
09/12/2018 23:00 6.73 91.5 20.21 0.01 64.1
09/12/2018 22:00 6.73 91.5 20.22 0.03 64.1
09/12/2018 21:00 6.73 91.5 20.22 0.01 64.2
09/12/2018 20:00 6.73 91.5 20.22 0.00 64.2
09/12/2018 19:00 6.73 91.5 20.21 0.00 64.3
09/12/2018 18:00 6.73 91.5 20.21 0.00 64.5
09/12/2018 17:00 6.72 89.7 20.20 0.00 64.5
09/12/2018 16:00 6.72 89.7 20.19 0.00 64.7
09/12/2018 15:00 6.71 87.9 20.18 0.00 65.4
09/12/2018 14:00 6.70 86.1 20.17 0.00 66.1
09/12/2018 13:00 6.69 84.6 20.16 0.00 67.3
09/12/2018 12:00 6.68 83.2 20.15 0.01 67.7
09/12/2018 11:00 6.67 81.7 20.14 0.00 68.4
09/12/2018 10:00 6.67 81.7 20.13 0.01 68.0
09/12/2018 09:00 6.66 80.3 20.13 0.03 66.8
09/12/2018 08:00 6.66 80.3 20.13 0.36 66.4
09/12/2018 07:00 6.65 78.9 20.12 0.02 66.9
09/12/2018 06:00 6.65 78.9 20.13 0.00 67.0
09/12/2018 05:00 6.66 80.3 20.13 0.00 67.1
09/12/2018 04:00 6.67 81.7 20.14 0.00 66.1
09/12/2018 03:00 6.66 80.3 20.15 0.00 66.1
09/12/2018 02:00 6.68 83.2 20.15 0.00 66.3
09/12/2018 01:00 6.68 83.2 20.16 0.00 66.4
09/12/2018 00:00 6.69 84.6 20.16 0.00 66.6
09/11/2018 23:00 6.70 86.1 20.17 0.00 66.5
09/11/2018 22:00 6.70 86.1 20.18 0.00 66.5
09/11/2018 21:00 6.70 86.1 20.18 0.01 66.9
09/11/2018 20:00 6.71 87.9 20.19 0.00 66.7
09/11/2018 19:00 6.71 87.9 20.19 0.00 66.6
09/11/2018 18:00 6.71 87.9 20.20 0.00 67.2
09/11/2018 17:00 6.72 89.7 20.20 0.00 67.2
09/11/2018 16:00 6.72 89.7 20.20 0.00 67.8
09/11/2018 15:00 6.73 91.5 20.21 0.00 68.7
09/11/2018 14:00 6.73 91.5 20.20 0.00 69.8
09/11/2018 13:00 6.72 89.7 20.20 0.00 69.8
09/11/2018 12:00 6.72 89.7 20.20 0.00 70.3
09/11/2018 11:00 -- -- 20.19 0.00 69.9
09/11/2018 10:00 6.70 86.1 20.18 0.00 69.8
09/11/2018 09:00 6.68 83.2 20.16 0.00 67.6
09/11/2018 08:00 6.66 80.3 20.14 0.00 65.4
09/11/2018 07:00 6.63 76.1 20.10 -- 63.5
09/11/2018 06:00 6.60 72.0 20.06 0.00 62.9
09/11/2018 05:00 6.55 65.5 20.01 0.00 62.4
09/11/2018 04:00 6.49 58.3 19.95 0.00 60.4
09/11/2018 03:00 6.41 49.4 19.86 0.78 59.3
09/11/2018 02:00 6.33 41.3 19.77 0.02 59.0
09/11/2018 01:00 6.26 35.0 19.67 0.03 59.0
09/11/2018 00:00 6.20 30.1 19.57 0.03 59.1
09/10/2018 23:00 6.13 24.7 19.49 0.03 58.9
09/10/2018 22:00 6.07 20.6 19.42 0.03 58.9
09/10/2018 21:00 6.03 18.1 19.35 0.04 58.6
09/10/2018 20:00 5.99 15.8 19.30 0.05 58.0
09/10/2018 19:00 5.96 14.2 19.26 0.04 58.1
09/10/2018 18:00 5.93 12.7 19.24 0.04 57.1
09/10/2018 17:00 5.91 11.8 19.21 0.03 56.6
09/10/2018 16:00 5.90 11.3 19.20 0.05 57.1
09/10/2018 15:00 5.89 10.9 19.18 0.07 57.3
09/10/2018 14:00 5.88 10.4 19.16 0.10 58.1
09/10/2018 13:00 5.87 10.0 19.16 0.12 58.3
09/10/2018 12:00 -- -- 19.15 0.02 59.7
09/10/2018 11:00 5.86 9.6 19.15 0.01 60.8
09/10/2018 10:00 5.86 9.6 19.15 0.00 60.4
09/10/2018 09:00 5.86 9.6 19.14 0.00 60.4
09/10/2018 08:00 5.86 9.6 19.14 0.00 60.6
09/10/2018 07:00 5.86 9.6 19.15 0.00 59.7
09/10/2018 06:00 5.86 9.6 19.16 0.00 59.3
09/10/2018 05:00 5.86 9.6 19.17 0.00 55.5
09/10/2018 04:00 5.86 9.6 19.15 0.00 50.3
09/10/2018 03:00 5.86 9.6 19.16 0.00 47.1
09/10/2018 02:00 5.87 10.0 19.16 0.00 46.5
09/10/2018 01:00 5.87 10.0 19.16 0.00 46.7
09/10/2018 00:00 5.87 10.0 19.17 0.00 47.1
09/09/2018 23:00 5.87 10.0 19.17 0.00 47.8
09/09/2018 22:00 5.87 10.0 19.17 0.00 47.8
09/09/2018 21:00 5.87 10.0 19.17 0.00 48.4
09/09/2018 20:00 5.87 10.0 19.17 0.00 49.1
09/09/2018 19:00 5.87 10.0 19.17 0.00 49.7
09/09/2018 18:00 5.88 10.4 19.17 0.00 50.2
09/09/2018 17:00 5.87 10.0 19.17 0.00 51.1
09/09/2018 16:00 5.88 10.4 19.17 0.00 52.7
09/09/2018 15:00 5.88 10.4 19.17 0.00 54.7
09/09/2018 14:00 5.88 10.4 19.17 0.00 57.7
09/09/2018 13:00 5.88 10.4 19.17 0.00 60.2
09/09/2018 12:00 5.88 10.4 19.17 0.00 62.0
09/09/2018 11:00 5.88 10.4 19.17 0.00 62.8
09/09/2018 10:00 5.88 10.4 19.17 0.00 62.0
09/09/2018 09:00 5.88 10.4 19.17 0.00 61.2
09/09/2018 08:00 5.88 10.4 19.17 0.00 60.3
09/09/2018 07:00 5.88 10.4 19.17 0.00 57.9
09/09/2018 06:00 5.88 10.4 19.18 0.00 56.6
09/09/2018 05:00 5.88 10.4 19.18 0.00 51.9
09/09/2018 04:00 5.88 10.4 19.18 0.00 47.3
09/09/2018 03:00 5.89 10.9 19.18 0.00 45.2
09/09/2018 02:00 5.89 10.9 19.18 0.00 45.3
09/09/2018 01:00 5.89 10.9 19.18 0.00 45.8
09/09/2018 00:00 5.89 10.9 19.18 0.00 46.1
09/08/2018 23:00 5.89 10.9 19.18 0.00 46.4
09/08/2018 22:00 5.89 10.9 19.18 0.00 46.7
09/08/2018 21:00 5.89 10.9 19.18 0.00 47.2
09/08/2018 20:00 5.89 10.9 19.19 -- 47.6
09/08/2018 19:00 -- -- 19.19 -- 48.0
09/08/2018 18:00 -- -- 19.19 -- 48.4
09/08/2018 17:00 -- -- 19.19 -- 48.8
09/08/2018 16:00 -- -- 19.19 -- 49.3
09/08/2018 15:00 -- -- 19.19 -- 49.7
09/08/2018 14:00 -- -- 19.19 -- 50.1
09/08/2018 13:00 -- -- 19.19 -- 50.5
09/08/2018 12:00 -- -- 19.19 -- 50.9
09/08/2018 11:00 -- -- 19.19 -- 51.3
09/08/2018 10:00 -- -- 19.19 -- 51.7
09/08/2018 09:00 -- -- 19.19 -- 52.1
09/08/2018 08:00 -- -- 19.19 -- 52.6
09/08/2018 07:00 -- -- 19.19 -- 53.0
09/08/2018 06:00 -- -- 19.19 -- 53.4
09/08/2018 05:00 -- -- 19.19 -- 53.8
09/08/2018 04:00 -- -- 19.19 -- 54.2
09/08/2018 03:00 -- -- 19.19 -- 54.6
09/08/2018 02:00 -- -- 19.19 -- 55.0
09/08/2018 01:00 -- -- 19.19 -- 55.4
09/08/2018 00:00 -- -- 19.19 -- 55.9
09/07/2018 23:00 -- -- 19.19 -- 56.3
09/07/2018 22:00 -- -- 19.19 -- 56.7
09/07/2018 21:00 -- -- 19.19 -- 57.1
09/07/2018 20:00 -- -- 19.19 -- 57.5
09/07/2018 19:00 -- -- 19.19 -- 57.9
09/07/2018 18:00 -- -- 19.19 -- 58.3
09/07/2018 17:00 -- -- 19.19 -- 58.7
09/07/2018 16:00 -- -- 19.19 -- 59.2
09/07/2018 15:00 -- -- 19.19 -- 59.6
09/07/2018 14:00 -- -- 19.19 -- 60.0
09/07/2018 13:00 -- -- 19.19 -- 60.4
09/07/2018 12:00 -- -- 19.19 -- 60.8
09/07/2018 11:00 -- -- 19.19 -- 61.2
09/07/2018 10:00 -- -- 19.19 -- 61.6
09/07/2018 09:00 -- -- 19.19 -- 62.0
09/07/2018 08:00 -- -- 19.19 -- 62.5
09/07/2018 07:00 -- -- 19.19 -- 62.9
09/07/2018 06:00 -- -- 19.19 -- 63.3
09/07/2018 05:00 -- -- 19.19 0.00 63.7
09/07/2018 04:00 -- -- 19.19 0.00 61.0
09/07/2018 03:00 5.91 11.8 19.19 0.00 60.3
09/07/2018 02:00 5.91 11.8 19.19 0.00 60.8
09/07/2018 01:00 5.91 11.8 19.19 0.00 61.1
09/07/2018 00:00 5.91 11.8 19.19 0.00 61.0
09/06/2018 23:00 5.91 11.8 19.19 0.00 62.8
09/06/2018 22:00 5.91 11.8 19.19 0.00 65.2
09/06/2018 21:00 5.91 11.8 19.19 0.00 66.0
09/06/2018 20:00 5.91 11.8 19.19 0.00 68.0
09/06/2018 19:00 5.91 11.8 19.19 0.00 68.8
09/06/2018 18:00 5.91 11.8 19.19 0.00 69.3
09/06/2018 17:00 5.91 11.8 19.19 0.00 69.9
09/06/2018 16:00 5.91 11.8 19.19 0.00 71.4
09/06/2018 15:00 5.91 11.8 19.19 0.00 72.8
09/06/2018 14:00 5.91 11.8 19.19 0.00 74.6
09/06/2018 13:00 5.91 11.8 19.19 0.00 73.0
09/06/2018 12:00 5.92 12.2 19.19 0.01 74.2
09/06/2018 11:00 5.92 12.2 19.19 0.03 76.5
09/06/2018 10:00 5.92 12.2 19.19 0.00 93.1
09/06/2018 09:00 5.92 12.2 19.20 0.00 90.9
09/06/2018 08:00 5.91 11.8 19.19 0.00 87.1
09/06/2018 07:00 5.92 12.2 19.20 0.00 86.8
09/06/2018 06:00 5.92 12.2 19.20 0.00 81.8
09/06/2018 05:00 5.91 11.8 19.20 0.00 76.2
09/06/2018 04:00 5.91 11.8 19.20 0.00 74.8
09/06/2018 03:00 5.92 12.2 19.20 0.00 74.3
09/06/2018 02:00 5.91 11.8 19.20 0.00 74.1
09/06/2018 01:00 5.91 11.8 19.20 0.00 74.4
09/06/2018 00:00 5.91 11.8 19.20 0.00 75.5
09/05/2018 23:00 5.91 11.8 19.20 0.00 75.5
09/05/2018 22:00 5.92 12.2 19.20 0.00 74.6
09/05/2018 21:00 5.92 12.2 19.21 0.00 73.5
09/05/2018 20:00 5.92 12.2 19.21 0.00 72.9
09/05/2018 19:00 5.92 12.2 19.21 0.00 73.0
09/05/2018 18:00 5.92 12.2 19.21 0.00 72.8
09/05/2018 17:00 5.92 12.2 19.21 0.00 74.1
09/05/2018 16:00 5.93 12.7 19.21 0.00 75.6
09/05/2018 15:00 5.93 12.7 19.21 0.00 78.9
09/05/2018 14:00 5.93 12.7 19.21 0.00 83.7
09/05/2018 13:00 5.93 12.7 19.21 0.00 87.2
09/05/2018 12:00 5.93 12.7 19.21 0.00 89.5
09/05/2018 11:00 5.93 12.7 19.21 0.00 90.2
09/05/2018 10:00 -- -- 19.21 0.00 89.4
09/05/2018 09:00 -- -- 19.21 0.00 85.1
09/05/2018 08:00 -- -- 19.21 0.00 80.8
09/05/2018 07:00 -- -- 19.22 0.00 76.5
09/05/2018 06:00 -- -- 19.22 0.00 72.3
09/05/2018 05:00 -- -- 19.22 0.00 68.0
09/05/2018 04:00 -- -- 19.22 0.00 63.7
09/05/2018 03:00 5.94 13.2 19.22 -- 62.3
09/05/2018 02:00 -- -- 19.23 0.00 62.0
09/05/2018 01:00 -- -- 19.23 0.00 62.6
09/05/2018 00:00 -- -- 19.23 0.00 63.2
09/04/2018 23:00 5.95 13.7 19.23 0.00 63.8
09/04/2018 22:00 -- -- 19.23 0.00 65.3
09/04/2018 21:00 -- -- -- -- --
09/04/2018 20:00 -- -- -- -- --
09/04/2018 19:00 -- -- -- -- --
09/04/2018 18:00 -- -- -- -- --
09/04/2018 17:00 -- -- -- -- --
09/04/2018 16:00 -- -- -- -- --